^^

Nearby METAR Reports

 

EGHH - Bournemouth Airp, United Kingdom
Distance from station: S 10mi, 17km
Updated: 03/07/2020 17:20
Mostly cloudy
Mostly cloudy
 Wind from WSW
Wind: WSW 16 mph , 26 km/h
Temperature: 17°C
Dew Point: 12°C
Humidity: 73%
Barometer: 1017 hPa
Clouds: Mostly cloudy
Visibility: 6 miles , 10 km
Cloud details: Mostly cloudy 640 m
2020/07/03 16:20 EGHH 031620Z 24014KT 210V270 9999 BKN021 17/12 Q1017
EGDM - Boscombe Down, United Kingdom
Distance from station: N 16mi, 26km
Updated: 03/07/2020 16:50
Mostly cloudy
Mostly cloudy
 Wind from SW
Wind: SW 21 mph , 33 km/h
Temperature: 16°C
Dew Point: 11°C
Humidity: 72%
Barometer: 1016 hPa
Clouds: Mostly cloudy
Visibility: 6 miles , 10 km
Cloud details: Partly cloudy 762 m
Mostly cloudy 2134 m
2020/07/03 15:50 EGDM 031550Z AUTO 23018KT 9999 SCT025/// BKN070/// 16/11 Q1016
 
EGVP - Middle Wallop, United Kingdom
Distance from station: NE 17mi, 27km
Updated: 03/07/2020 16:50
Mostly cloudy
Mostly cloudy
 Wind from SW
Wind: SW 15 mph , 24 km/h
Temperature: 17°C
Dew Point: 10°C
Humidity: 64%
Barometer: 1016 hPa
Clouds: Mostly cloudy
Visibility: 6 miles , 10 km
Cloud details: Few Clouds 823 m
Mostly cloudy 2134 m
2020/07/03 15:50 EGVP 031550Z AUTO 23013KT 9999 FEW027/// BKN070/// 17/10 Q1016
EGHI - Southampton Wx C, United Kingdom
Distance from station: E 19mi, 31km
Updated: 03/07/2020 17:20
Mostly cloudy
Mostly cloudy
 Wind from SW
Wind: SW 22 mph , 35 km/h
Temperature: 17°C
Dew Point: 10°C
Humidity: 64%
Barometer: 1017 hPa
Clouds: Mostly cloudy
Visibility: 6 miles , 10 km
Cloud details: Mostly cloudy 792 m
2020/07/03 16:20 EGHI 031620Z 22019KT 200V260 9999 BKN026 17/10 Q1017
 
EGDY - Yeovilton (navy), United Kingdom
Distance from station: W 36mi, 58km
Updated: 03/07/2020 16:50
Mostly cloudy
Mostly cloudy
 Wind from SSW
Wind: SSW 17 mph , 28 km/h
Temperature: 16°C
Dew Point: 12°C
Humidity: 77%
Barometer: 1015 hPa
Clouds: Mostly cloudy
Visibility: 6 miles , 10 km
Cloud details: Mostly cloudy 762 m
2020/07/03 15:50 EGDY 031550Z AUTO 21015KT 9999 BKN025/// 16/12 Q1015 RERA
EGUO - Colerne Raf, United Kingdom
Distance from station: NNW 41mi, 66km
Updated: 14/02/2019 22:50
NOT Current
Clear
Clear
 Wind from ENE
Wind: ENE 1 mph , 2 km/h
Temperature: 1°C
Dew Point: 0°C
Humidity: 93%
Barometer: 1029 hPa
Summary: Clear
Visibility: greater than 7 miles , 10 km
2019/02/14 22:50 EGUO 142250Z 06001KT CAVOK 01/00 Q1029 BLU NOSIG
 
EGVO - Odiham Raf, United Kingdom
Distance from station: ENE 42mi, 68km
Updated: 03/07/2020 16:50
Partly cloudy
Partly cloudy
 Wind from SSW
Wind: SSW 23 mph , 37 km/h
Temperature: 18°C
Dew Point: 10°C
Humidity: 60%
Barometer: 1015 hPa
Clouds: Partly cloudy
Visibility: 6 miles , 10 km
Cloud details: Partly cloudy 945 m
Partly cloudy 3658 m
2020/07/03 15:50 EGVO 031550Z AUTO 21020KT 9999 SCT031/// SCT120/// 18/10 Q1015
EGGD - Bristol/Lulsgate, United Kingdom
Distance from station: NW 50mi, 81km
Updated: 03/07/2020 17:20
Light rain, Thunderstorm
Light rain, Thunderstorm
 Wind from SW
Wind: SW 15 mph , 24 km/h
Temperature: 14°C
Dew Point: 13°C
Humidity: 94%
Barometer: 1015 hPa
Summary: Light rain
Clouds: Thunderstorm
Visibility: 5 miles , 8 km
Cloud details: Mostly cloudy 244 m
Mostly cloudy 518 m
2020/07/03 16:20 EGGD 031620Z AUTO 22013KT 8000 -RA BKN008/// BKN017/// //////TCU 14/13 Q1015